createdAt,value
2018-01-06T00:03:48.115Z,"    0"
2018-01-06T00:08:46.695Z,"    0"
2018-01-06T00:13:43.964Z,"    0"
2018-01-06T00:18:39.740Z,"    0"
2018-01-06T00:23:35.377Z,"    0"
2018-01-06T00:28:31.120Z,"    0"
2018-01-06T00:33:27.194Z,"    0"
2018-01-06T00:38:23.056Z,"    0"
2018-01-06T00:43:18.973Z,"    0"
2018-01-06T00:48:14.798Z,"    0"
2018-01-06T00:53:10.735Z,"    0"
2018-01-06T00:58:07.856Z,"    0"
2018-01-06T01:03:04.236Z,"    0"
2018-01-06T01:08:00.605Z,"    0"
2018-01-06T01:12:55.861Z,"    0"
2018-01-06T01:17:51.908Z,"    0"
2018-01-06T01:22:47.647Z,"    0"
2018-01-06T01:27:44.538Z,"    0"
2018-01-06T01:32:41.891Z,"    0"
2018-01-06T01:37:38.088Z,"    0"
2018-01-06T01:42:34.703Z,"    0"
2018-01-06T01:47:32.274Z,"    0"
2018-01-06T01:52:28.415Z,"    0"
2018-01-06T01:57:25.060Z,"    0"
2018-01-06T02:02:21.848Z,"    0"
2018-01-06T02:07:18.910Z,"    0"
2018-01-06T02:12:15.379Z,"    0"
2018-01-06T02:17:11.470Z,"    0"
2018-01-06T02:22:08.972Z,"    0"
2018-01-06T02:27:04.300Z,"    0"
2018-01-06T02:32:00.812Z,"    0"
2018-01-06T02:36:57.848Z,"    0"
2018-01-06T02:41:53.296Z,"    0"
2018-01-06T02:46:48.962Z,"    0"
2018-01-06T02:51:44.635Z,"    0"
2018-01-06T02:56:42.065Z,"    0"
2018-01-06T03:01:37.383Z,"    0"
2018-01-06T03:06:34.605Z,"    0"
2018-01-06T03:11:30.040Z,"    0"
2018-01-06T03:16:25.902Z,"    0"
2018-01-06T03:21:23.210Z,"    0"
2018-01-06T03:26:19.734Z,"    0"
2018-01-06T03:31:16.199Z,"    0"
2018-01-06T03:36:12.635Z,"    0"
2018-01-06T03:41:09.219Z,"    0"
2018-01-06T03:46:04.394Z,"    0"
2018-01-06T03:51:01.116Z,"    0"
2018-01-06T03:55:57.056Z,"    0"
2018-01-06T04:00:52.653Z,"    0"
2018-01-06T04:05:48.730Z,"    0"
2018-01-06T04:10:45.641Z,"    0"
2018-01-06T04:15:41.531Z,"    0"
2018-01-06T04:20:36.875Z,"    0"
2018-01-06T04:25:33.526Z,"    0"
2018-01-06T04:30:30.883Z,"    0"
2018-01-06T04:35:26.946Z,"    0"
2018-01-06T04:40:23.927Z,"    0"
2018-01-06T04:45:20.276Z,"    0"
2018-01-06T04:50:19.108Z,"    0"
2018-01-06T04:55:14.535Z,"    0"
2018-01-06T05:00:12.183Z,"    0"
2018-01-06T05:05:08.530Z,"    0"
2018-01-06T05:10:05.117Z,"    0"
2018-01-06T05:15:00.777Z,"    0"
2018-01-06T05:19:56.809Z,"    0"
2018-01-06T05:24:53.659Z,"    0"
2018-01-06T05:29:50.322Z,"    0"
2018-01-06T05:34:47.912Z,"    0"
2018-01-06T05:39:43.222Z,"    0"
2018-01-06T05:44:40.255Z,"    0"
2018-01-06T05:49:36.882Z,"    0"
2018-01-06T05:54:33.435Z,"    0"
2018-01-06T05:59:30.293Z,"    0"
2018-01-06T06:04:27.164Z,"    0"
2018-01-06T06:09:23.574Z,"    0"
2018-01-06T06:14:21.234Z,"    0"
2018-01-06T06:19:17.626Z,"    0"
2018-01-06T06:24:13.233Z,"    0"
2018-01-06T06:29:09.113Z,"    0"
2018-01-06T06:34:06.246Z,"    0"
2018-01-06T06:39:02.787Z,"    0"
2018-01-06T06:43:59.493Z,"    0"
2018-01-06T06:48:56.247Z,"    0"
2018-01-06T06:53:52.696Z,"    0"
2018-01-06T06:58:48.713Z,"    0"
2018-01-06T07:03:45.825Z,"    4"
2018-01-06T07:08:42.337Z,"    4"
2018-01-06T07:13:38.644Z,"    4"
2018-01-06T07:18:35.312Z,"   16"
2018-01-06T07:23:31.600Z,"   24"
2018-01-06T07:28:28.240Z,"   36"
2018-01-06T07:33:24.106Z,"   60"
2018-01-06T07:38:19.751Z,"   84"
2018-01-06T07:43:16.414Z,"  124"
2018-01-06T07:48:11.969Z,"  172"
2018-01-06T07:53:08.683Z,"  248"
2018-01-06T07:58:04.010Z,"  376"
2018-01-06T08:03:00.116Z,"  560"
2018-01-06T08:07:55.987Z,"  748"
2018-01-06T08:12:52.588Z,"  864"
2018-01-06T08:17:47.964Z,"  848"
2018-01-06T08:22:43.766Z," 1068"
2018-01-06T08:27:39.527Z," 1236"
2018-01-06T08:32:35.744Z," 1428"
2018-01-06T08:37:32.524Z," 1504"
2018-01-06T08:42:30.079Z," 1576"
2018-01-06T08:47:26.354Z," 1580"
2018-01-06T08:52:24.903Z," 1536"
2018-01-06T08:57:20.921Z," 1624"
2018-01-06T09:02:16.171Z," 1916"
2018-01-06T09:07:12.044Z," 2200"
2018-01-06T09:12:08.224Z," 2648"
2018-01-06T09:17:05.040Z," 2616"
2018-01-06T09:22:00.813Z," 2596"
2018-01-06T09:26:57.495Z," 2516"
2018-01-06T09:31:53.439Z," 3060"
2018-01-06T09:36:50.099Z," 3416"
2018-01-06T09:41:46.572Z," 3656"
2018-01-06T09:46:42.459Z," 3168"
2018-01-06T09:51:39.332Z," 3344"
2018-01-06T09:56:34.993Z," 3744"
2018-01-06T10:01:31.304Z," 3392"
2018-01-06T10:06:28.192Z," 4260"
2018-01-06T10:11:23.904Z," 4184"
2018-01-06T10:16:20.572Z," 3796"
2018-01-06T10:21:16.215Z," 3684"
2018-01-06T10:26:13.069Z," 4280"
2018-01-06T10:31:09.382Z," 3816"
2018-01-06T10:36:06.004Z," 5444"
2018-01-06T10:41:03.574Z," 4632"
2018-01-06T10:45:59.893Z," 4712"
2018-01-06T10:50:59.788Z," 4448"
2018-01-06T10:55:55.770Z," 4892"
2018-01-06T11:00:51.323Z," 5460"
2018-01-06T11:05:47.013Z," 4692"
2018-01-06T11:10:43.562Z," 5176"
2018-01-06T11:15:41.245Z," 5920"
2018-01-06T11:20:36.498Z," 5040"
2018-01-06T11:25:33.121Z," 4288"
2018-01-06T11:30:30.081Z," 4168"
2018-01-06T11:35:27.480Z," 4616"
2018-01-06T11:40:24.344Z," 4504"
2018-01-06T11:45:21.857Z," 4400"
2018-01-06T11:50:18.133Z," 4380"
2018-01-06T11:55:13.408Z," 4744"
2018-01-06T12:00:10.087Z," 4128"
2018-01-06T12:05:05.664Z," 4460"
2018-01-06T12:10:03.719Z," 5244"
2018-01-06T12:15:01.202Z," 4208"
2018-01-06T12:19:57.709Z," 3776"
2018-01-06T12:24:52.853Z," 4232"
2018-01-06T12:29:49.599Z," 3912"
2018-01-06T12:34:45.157Z," 3700"
2018-01-06T12:39:41.991Z," 3780"
2018-01-06T12:44:37.786Z," 3584"
2018-01-06T12:49:35.437Z," 2900"
2018-01-06T12:54:34.714Z," 3076"
2018-01-06T12:59:29.668Z," 3424"
2018-01-06T13:04:25.330Z," 3100"
2018-01-06T13:09:22.937Z," 2736"
2018-01-06T13:14:19.021Z," 2532"
2018-01-06T13:19:14.540Z," 2736"
2018-01-06T13:24:11.611Z," 2612"
2018-01-06T13:29:09.014Z," 2388"
2018-01-06T13:34:05.084Z," 2288"
2018-01-06T13:39:01.483Z," 2172"
2018-01-06T13:43:58.698Z," 2292"
2018-01-06T13:48:53.989Z," 2176"
2018-01-06T13:53:50.654Z," 2296"
2018-01-06T13:58:47.566Z," 2512"
2018-01-06T14:03:42.988Z," 2476"
2018-01-06T14:08:38.944Z," 2160"
2018-01-06T14:13:34.670Z," 1732"
2018-01-06T14:18:31.597Z," 1576"
2018-01-06T14:23:27.128Z," 1516"
2018-01-06T14:28:22.848Z," 1528"
2018-01-06T14:33:18.716Z," 1480"
2018-01-06T14:38:15.130Z," 1092"
2018-01-06T14:43:10.772Z," 1036"
2018-01-06T14:48:06.603Z,"  868"
2018-01-06T14:53:02.492Z,"  736"
2018-01-06T14:58:00.244Z,"  648"
2018-01-06T15:02:55.836Z,"  488"
2018-01-06T15:07:54.147Z,"  380"
2018-01-06T15:12:49.379Z,"  312"
2018-01-06T15:17:46.432Z,"  260"
2018-01-06T15:22:42.969Z,"  208"
2018-01-06T15:27:38.084Z,"  152"
2018-01-06T15:32:34.821Z,"  112"
2018-01-06T15:37:31.263Z,"   76"
2018-01-06T15:42:26.694Z,"   52"
2018-01-06T15:47:24.285Z,"   32"
2018-01-06T15:52:20.963Z,"   16"
2018-01-06T15:57:16.353Z,"    8"
2018-01-06T16:02:11.903Z,"    8"
2018-01-06T16:07:07.886Z,"    4"
2018-01-06T16:12:03.848Z,"    0"
2018-01-06T16:16:59.643Z,"    0"
2018-01-06T16:21:55.499Z,"    0"
2018-01-06T16:26:51.245Z,"    0"
2018-01-06T16:31:46.861Z,"    0"
2018-01-06T16:36:42.712Z,"    0"
2018-01-06T16:41:38.459Z,"    0"
2018-01-06T16:46:34.320Z,"    0"
2018-01-06T16:51:31.136Z,"    0"
2018-01-06T16:56:26.752Z,"    0"
2018-01-06T17:06:21.874Z,"    0"
2018-01-06T17:11:18.682Z,"    0"
2018-01-06T17:16:15.221Z,"    0"
2018-01-06T17:21:11.850Z,"    0"
2018-01-06T17:26:09.182Z,"    0"
2018-01-06T17:31:04.794Z,"    0"
2018-01-06T17:36:01.261Z,"    0"
2018-01-06T17:40:58.896Z,"    0"
2018-01-06T17:45:54.797Z,"    0"
2018-01-06T17:50:52.222Z,"    0"
2018-01-06T17:55:48.753Z,"    0"
2018-01-06T18:00:44.290Z,"    0"
2018-01-06T18:05:39.926Z,"    0"
2018-01-06T18:15:36.125Z,"    0"
2018-01-06T18:20:32.512Z,"    0"
2018-01-06T18:25:28.930Z,"    0"
2018-01-06T18:30:25.613Z,"    0"
2018-01-06T18:35:20.975Z,"    0"
2018-01-06T18:40:16.834Z,"    0"
2018-01-06T18:45:12.602Z,"    0"
2018-01-06T18:50:08.777Z,"    0"
2018-01-06T18:55:04.909Z,"    0"
2018-01-06T19:00:01.760Z,"    0"
2018-01-06T19:04:57.398Z,"    0"
2018-01-06T19:09:53.124Z,"    0"
2018-01-06T19:14:48.931Z,"    0"
2018-01-06T19:19:45.266Z,"    0"
2018-01-06T19:24:42.117Z,"    0"
2018-01-06T19:29:38.719Z,"    0"
2018-01-06T19:34:33.823Z,"    0"
2018-01-06T19:39:29.684Z,"    0"
2018-01-06T19:44:25.207Z,"    0"
2018-01-06T19:49:21.916Z,"    0"
2018-01-06T19:54:17.433Z,"    0"
2018-01-06T19:59:12.977Z,"    0"
2018-01-06T20:04:10.115Z,"    0"
2018-01-06T20:09:06.770Z,"    0"
2018-01-06T20:14:02.953Z,"    0"
2018-01-06T20:18:59.388Z,"    0"
2018-01-06T20:23:54.798Z,"    0"
2018-01-06T20:28:50.569Z,"    0"
2018-01-06T20:33:46.338Z,"    0"
2018-01-06T20:38:43.354Z,"    0"
2018-01-06T20:43:38.907Z,"    0"
2018-01-06T20:48:34.272Z,"    0"
2018-01-06T20:53:29.917Z,"    0"
2018-01-06T20:58:26.177Z,"    0"
2018-01-06T21:03:23.556Z,"    0"
2018-01-06T21:08:18.939Z,"    0"
2018-01-06T21:13:14.572Z,"    0"
2018-01-06T21:18:10.459Z,"    0"
2018-01-06T21:23:06.128Z,"    0"
2018-01-06T21:28:02.036Z,"    0"
2018-01-06T21:32:57.604Z,"    0"
2018-01-06T21:37:55.066Z,"    0"
2018-01-06T21:42:50.554Z,"    0"
2018-01-06T21:47:46.167Z,"    0"
2018-01-06T21:52:42.478Z,"    0"
2018-01-06T21:57:39.119Z,"    0"
2018-01-06T22:02:36.012Z,"    0"
2018-01-06T22:07:31.471Z,"    0"
2018-01-06T22:12:27.483Z,"    0"
2018-01-06T22:17:25.000Z,"    0"
2018-01-06T22:22:20.727Z,"    0"
2018-01-06T22:27:16.333Z,"    0"
2018-01-06T22:32:12.135Z,"    0"
2018-01-06T22:37:08.819Z,"    0"
2018-01-06T22:42:04.500Z,"    0"
2018-01-06T22:47:00.931Z,"    0"
2018-01-06T22:51:56.632Z,"    0"
2018-01-06T22:56:53.211Z,"    0"
2018-01-06T23:01:48.859Z,"    0"
2018-01-06T23:06:44.958Z,"    0"
2018-01-06T23:11:40.525Z,"    0"
2018-01-06T23:16:37.198Z,"    0"
2018-01-06T23:21:32.421Z,"    0"
2018-01-06T23:26:28.529Z,"    0"
2018-01-06T23:31:24.158Z,"    0"
2018-01-06T23:36:21.797Z,"    0"
2018-01-06T23:41:16.383Z,"    0"
2018-01-06T23:46:12.035Z,"    0"
2018-01-06T23:51:08.511Z,"    0"
2018-01-06T23:56:05.308Z,"    0"
